Time;durP1;ratioP1;P1;durP2;ratioP2;P2;SDS_P1;SDS_P2;PMS_P1;PMS_P2;Temp;Humidity;BMP_temperature;BMP_pressure;BME280_temperature;BME280_humidity;BME280_pressure;Samples;Min_cycle;Max_cycle;Signal;HPM_P1;HPM_P2
2022/04/23 00:01:42;;;;;;;21.35;11.70;;;;;;;14.27;55.91;99364.03;4975691;28;20046;-63
2022/04/23 00:04:13;;;;;;;18.83;12.15;;;;;;;14.16;56.13;99376.88;4958505;28;20059;-62
2022/04/23 00:06:41;;;;;;;15.85;10.20;;;;;;;14.00;56.61;99365.13;4975991;28;20115;-66
2022/04/23 00:09:08;;;;;;;15.88;10.82;;;;;;;14.24;55.86;99364.75;4974360;28;20050;-62
2022/04/23 00:11:35;;;;;;;17.95;10.57;;;;;;;14.15;56.25;99366.16;4970810;28;20050;-62
2022/04/23 00:14:04;;;;;;;17.08;10.90;;;;;;;13.98;56.66;99367.44;4969841;28;20074;-63
2022/04/23 00:16:32;;;;;;;15.73;11.70;;;;;;;13.79;57.45;99352.88;4973471;28;20055;-63
2022/04/23 00:18:59;;;;;;;17.33;11.52;;;;;;;13.76;57.53;99361.91;4951400;28;20043;-63
2022/04/23 00:21:28;;;;;;;19.67;11.68;;;;;;;13.96;56.91;99355.97;4940827;28;20047;-62
2022/04/23 00:23:55;;;;;;;16.45;10.73;;;;;;;14.07;56.59;99353.38;4976939;28;20047;-62
2022/04/23 00:26:23;;;;;;;19.33;11.23;;;;;;;14.10;56.59;99347.09;4971342;28;20501;-62
2022/04/23 00:28:51;;;;;;;15.00;10.90;;;;;;;14.18;56.27;99346.84;4974940;28;20047;-62
2022/04/23 00:31:19;;;;;;;21.17;11.85;;;;;;;14.02;56.71;99345.38;4968917;28;20043;-63
2022/04/23 00:33:46;;;;;;;18.40;11.65;;;;;;;13.75;57.23;99354.78;4958414;28;20054;-62
2022/04/23 00:36:14;;;;;;;17.25;12.68;;;;;;;13.79;57.45;99345.34;4958703;28;20073;-62
2022/04/23 00:38:42;;;;;;;15.70;12.00;;;;;;;13.62;58.17;99343.06;4942898;28;20058;-62
2022/04/23 00:41:43;;;;;;;17.10;11.55;;;;;;;13.58;58.15;99337.47;4950772;28;20533;-63
2022/04/23 00:44:01;;;;;;;14.85;11.68;;;;;;;13.63;57.98;99336.38;4971608;28;20062;-62
2022/04/23 00:46:28;;;;;;;18.85;12.02;;;;;;;13.59;58.18;99329.97;4975520;28;20051;-62
2022/04/23 00:48:58;;;;;;;16.85;12.15;;;;;;;13.90;57.41;99321.44;4975659;28;20066;-62
2022/04/23 00:51:31;;;;;;;19.87;11.63;;;;;;;13.75;57.46;99316.84;4978345;28;20059;-62
2022/04/23 00:54:01;;;;;;;15.60;12.30;;;;;;;13.87;57.20;99315.84;4975395;28;20815;-61
2022/04/23 00:56:28;;;;;;;16.92;12.00;;;;;;;13.69;57.66;99314.72;4959192;28;20062;-62
2022/04/23 00:58:56;;;;;;;19.20;12.57;;;;;;;13.62;57.88;99309.06;4954983;28;20065;-63
2022/04/23 01:01:24;;;;;;;21.10;12.63;;;;;;;13.80;57.63;99312.94;4942292;28;20069;-62
2022/04/23 01:03:54;;;;;;;17.17;12.85;;;;;;;13.82;57.61;99302.31;4973614;28;20046;-62
2022/04/23 01:06:22;;;;;;;17.20;12.52;;;;;;;13.46;58.43;99300.88;4974945;28;20671;-64
2022/04/23 01:08:50;;;;;;;18.30;11.23;;;;;;;13.44;58.34;99306.75;4973953;28;20061;-63
2022/04/23 01:11:17;;;;;;;18.63;11.52;;;;;;;13.32;59.12;99293.09;4957001;28;20058;-63
2022/04/23 01:13:45;;;;;;;16.98;12.18;;;;;;;13.58;58.15;99297.94;4975145;28;20054;-63
2022/04/23 01:16:12;;;;;;;19.63;12.27;;;;;;;13.70;58.02;99292.25;4968560;28;20039;-62
2022/04/23 01:18:42;;;;;;;17.60;11.73;;;;;;;13.44;58.61;99298.47;4941818;28;20054;-62
2022/04/23 01:21:10;;;;;;;19.20;11.73;;;;;;;13.57;58.56;99290.81;4974471;28;20065;-63
2022/04/23 01:23:42;;;;;;;17.50;11.93;;;;;;;13.90;57.54;99292.97;4964280;28;20062;-62
2022/04/23 01:26:10;;;;;;;19.58;12.55;;;;;;;13.69;57.77;99287.06;4967235;28;20057;-67
2022/04/23 01:28:38;;;;;;;16.40;12.50;;;;;;;13.58;58.47;99289.66;4974968;28;20062;-66
2022/04/23 01:31:06;;;;;;;15.45;12.40;;;;;;;13.43;58.79;99293.31;4958621;28;20059;-66
2022/04/23 01:33:34;;;;;;;18.33;11.95;;;;;;;13.11;59.62;99292.69;4974764;28;20047;-65
2022/04/23 01:36:02;;;;;;;19.88;12.63;;;;;;;12.96;60.25;99304.59;4972441;28;20055;-66
2022/04/23 01:38:29;;;;;;;17.55;13.00;;;;;;;13.18;59.81;99298.34;4975230;28;20051;-66
2022/04/23 01:40:57;;;;;;;18.70;12.93;;;;;;;13.22;60.06;99293.69;4974956;28;20042;-66
2022/04/23 01:43:24;;;;;;;17.92;13.02;;;;;;;13.43;59.29;99291.34;4966454;28;20043;-66
2022/04/23 01:45:51;;;;;;;21.17;13.15;;;;;;;13.25;59.22;99292.97;4973282;28;20043;-65
2022/04/23 01:48:19;;;;;;;21.10;13.40;;;;;;;13.39;59.13;99284.94;4957008;28;20058;-66
2022/04/23 01:50:46;;;;;;;16.10;12.55;;;;;;;13.29;59.15;99285.53;4957880;28;20050;-67
2022/04/23 01:53:15;;;;;;;20.25;13.20;;;;;;;13.22;59.62;99288.19;4955161;28;20047;-64
2022/04/23 01:55:43;;;;;;;18.85;12.30;;;;;;;13.23;59.74;99286.22;4954015;28;20507;-66
2022/04/23 01:58:10;;;;;;;20.13;13.25;;;;;;;13.07;60.39;99283.53;4974954;28;20165;-67
2022/04/23 02:00:37;;;;;;;22.20;13.15;;;;;;;13.19;59.81;99288.09;4974367;28;20042;-62
2022/04/23 02:03:06;;;;;;;21.40;13.20;;;;;;;13.21;59.52;99285.78;4975107;28;20047;-63
2022/04/23 02:05:33;;;;;;;20.83;13.27;;;;;;;13.24;59.91;99288.63;4974866;28;20062;-63
2022/04/23 02:08:03;;;;;;;18.95;13.45;;;;;;;13.07;60.20;99282.72;4975187;28;20042;-62
2022/04/23 02:10:31;;;;;;;18.30;13.10;;;;;;;13.15;60.02;99279.75;4974791;28;20069;-62
2022/04/23 02:12:58;;;;;;;17.90;13.25;;;;;;;12.80;60.96;99273.47;4968112;28;20058;-62
2022/04/23 02:15:25;;;;;;;17.65;12.82;;;;;;;12.70;61.31;99276.00;4972895;28;20478;-62
2022/04/23 02:17:53;;;;;;;18.58;13.07;;;;;;;12.68;61.84;99275.53;4946351;28;20050;-66
2022/04/23 02:20:20;;;;;;;22.05;13.48;;;;;;;12.98;60.89;99262.75;4978772;28;20417;-66
2022/04/23 02:22:48;;;;;;;20.70;13.52;;;;;;;12.84;61.20;99268.00;4970716;28;20042;-66
2022/04/23 02:25:16;;;;;;;20.85;13.15;;;;;;;12.99;60.56;99262.41;4974326;28;20050;-67
2022/04/23 02:27:43;;;;;;;21.30;14.05;;;;;;;12.69;61.44;99266.13;4967468;28;20066;-65
2022/04/23 02:30:16;;;;;;;19.17;12.90;;;;;;;12.84;61.17;99263.28;4973778;28;20063;-67
2022/04/23 02:32:44;;;;;;;17.63;13.02;;;;;;;12.69;61.62;99266.13;4967131;28;20051;-66
2022/04/23 02:35:14;;;;;;;17.25;13.27;;;;;;;12.61;62.03;99267.91;4973312;28;20039;-66
2022/04/23 02:37:44;;;;;;;19.30;13.80;;;;;;;12.62;61.75;99271.50;4975001;28;20510;-66
2022/04/23 02:40:12;;;;;;;;;;;;;;;12.73;61.82;99256.72;4972303;28;20379;-65
2022/04/23 02:42:39;;;;;;;17.73;14.30;;;;;;;12.58;62.04;99263.13;4966136;28;19930;-66
2022/04/23 02:45:09;;;;;;;22.35;13.45;;;;;;;12.48;62.52;99264.47;4954811;28;20042;-66
2022/04/23 02:47:46;;;;;;;20.50;13.40;;;;;;;12.56;62.59;99251.63;4974284;28;20066;-66
2022/04/23 02:50:15;;;;;;;18.88;13.88;;;;;;;12.68;61.88;99247.91;4973172;28;20054;-65
2022/04/23 02:52:43;;;;;;;19.88;13.60;;;;;;;12.73;62.02;99242.91;4967646;28;20043;-62
2022/04/23 02:55:11;;;;;;;19.65;13.00;;;;;;;12.84;61.36;99241.19;4970155;28;20050;-62
2022/04/23 02:57:42;;;;;;;19.00;12.75;;;;;;;12.74;61.22;99238.19;4970063;28;20055;-62
2022/04/23 03:00:11;;;;;;;18.63;13.55;;;;;;;12.59;62.10;99244.59;4973551;28;20046;-62
2022/04/23 03:02:39;;;;;;;18.17;13.50;;;;;;;12.49;62.32;99240.44;4946877;28;20043;-63
2022/04/23 03:05:11;;;;;;;16.45;12.20;;;;;;;12.61;62.06;99237.53;4974134;28;20047;-62
2022/04/23 03:07:39;;;;;;;17.80;12.77;;;;;;;12.65;61.89;99234.84;4975038;28;20389;-63
2022/04/23 03:10:09;;;;;;;19.40;12.88;;;;;;;12.84;61.07;99232.88;4978267;28;20070;-62
2022/04/23 03:12:36;;;;;;;15.77;12.93;;;;;;;12.83;61.39;99227.72;4971128;28;20047;-62
2022/04/23 03:15:09;;;;;;;17.40;13.52;;;;;;;12.86;61.13;99235.28;4954891;28;20505;-65
2022/04/23 03:17:37;;;;;;;17.80;13.00;;;;;;;12.69;61.42;99239.31;4976708;28;20058;-65
2022/04/23 03:20:05;;;;;;;18.48;13.07;;;;;;;12.83;60.89;99239.56;4974801;28;20050;-66
2022/04/23 03:22:33;;;;;;;16.40;13.02;;;;;;;12.67;61.42;99227.81;4956827;28;20086;-66
2022/04/23 03:25:00;;;;;;;17.45;12.80;;;;;;;12.52;61.99;99216.81;4942894;28;20065;-65
2022/04/23 03:27:29;;;;;;;18.55;12.30;;;;;;;12.75;61.58;99226.78;4977499;28;20050;-66
2022/04/23 03:29:59;;;;;;;16.38;12.80;;;;;;;12.72;61.18;99213.69;4958954;28;20050;-66
2022/04/23 03:32:27;;;;;;;16.30;12.77;;;;;;;12.84;60.98;99218.25;4959505;28;20057;-65
2022/04/23 03:34:54;;;;;;;16.95;12.00;;;;;;;12.46;62.00;99217.09;4960261;28;20054;-66
2022/04/23 03:37:22;;;;;;;19.63;12.70;;;;;;;12.51;62.39;99216.00;4975451;28;20055;-66
2022/04/23 03:39:50;;;;;;;16.60;12.82;;;;;;;12.39;62.77;99216.97;4977739;28;20058;-65
2022/04/23 03:42:17;;;;;;;14.30;11.75;;;;;;;12.37;62.55;99216.53;4974894;28;20090;-66
2022/04/23 03:44:44;;;;;;;15.35;11.88;;;;;;;12.11;63.72;99208.06;4977051;28;20069;-65
2022/04/23 03:47:11;;;;;;;15.77;11.90;;;;;;;12.29;62.99;99209.22;4976223;28;20078;-66
2022/04/23 03:49:39;;;;;;;17.38;12.20;;;;;;;12.43;62.60;99205.97;4975492;28;20054;-66
2022/04/23 03:52:06;;;;;;;18.33;11.73;;;;;;;12.64;61.77;99211.16;4969536;28;20062;-66
2022/04/23 03:54:33;;;;;;;15.60;12.05;;;;;;;12.73;61.43;99200.66;4975414;28;20051;-66
2022/04/23 03:57:01;;;;;;;15.60;12.27;;;;;;;12.74;61.47;99199.53;4975755;28;20063;-66
2022/04/23 03:59:29;;;;;;;16.10;13.02;;;;;;;12.78;61.19;99201.19;4975824;28;20499;-65
2022/04/23 04:01:56;;;;;;;17.67;12.25;;;;;;;12.52;62.02;99195.50;4976485;28;20057;-66
2022/04/23 04:04:24;;;;;;;15.15;12.02;;;;;;;12.49;62.00;99190.72;4977267;28;20058;-66
2022/04/23 04:06:51;;;;;;;14.70;11.57;;;;;;;12.74;61.45;99178.22;4979706;28;20494;-66
2022/04/23 04:09:18;;;;;;;14.75;10.93;;;;;;;12.34;62.53;99186.06;4976109;28;20050;-66
2022/04/23 04:12:01;;;;;;;17.52;11.82;;;;;;;12.34;62.51;99184.09;4977431;28;20442;-66
2022/04/23 04:14:37;;;;;;;17.58;11.77;;;;;;;12.44;62.29;99191.81;4975806;28;20046;-65
2022/04/23 04:17:09;;;;;;;16.85;11.85;;;;;;;12.43;62.25;99178.34;4966423;28;20059;-66
2022/04/23 04:19:37;;;;;;;16.08;12.40;;;;;;;12.55;61.85;99183.75;4958836;28;20054;-66
2022/04/23 04:22:06;;;;;;;17.02;11.85;;;;;;;12.68;61.72;99179.66;4972887;28;20177;-66
2022/04/23 04:24:34;;;;;;;17.20;12.40;;;;;;;12.38;62.23;99181.41;4974740;28;20063;-66
2022/04/23 04:27:04;;;;;;;15.38;11.93;;;;;;;12.24;62.92;99181.91;4976992;28;20414;-66
2022/04/23 04:29:31;;;;;;;17.70;11.90;;;;;;;12.14;63.57;99176.16;4974852;28;20410;-66
2022/04/23 04:31:59;;;;;;;15.38;11.45;;;;;;;11.97;64.00;99180.13;4974054;28;20203;-66
2022/04/23 04:34:30;;;;;;;17.20;11.75;;;;;;;11.98;64.33;99178.16;4973032;28;20051;-65
2022/04/23 04:37:16;;;;;;;15.38;11.93;;;;;;;12.07;63.96;99189.78;4975885;28;20051;-66
2022/04/23 04:39:43;;;;;;;16.17;11.82;;;;;;;12.50;62.79;99186.00;4975441;28;20586;-66
2022/04/23 04:42:11;;;;;;;18.08;11.90;;;;;;;12.52;62.47;99180.91;4959479;28;20055;-66
2022/04/23 04:44:38;;;;;;;15.95;11.45;;;;;;;12.70;61.65;99174.59;4967892;28;20043;-67
2022/04/23 04:47:09;;;;;;;14.55;11.85;;;;;;;12.27;62.85;99178.41;4957431;28;20046;-65
2022/04/23 04:49:37;;;;;;;17.77;12.00;;;;;;;12.03;63.79;99172.38;4975543;28;20058;-66
2022/04/23 04:52:05;;;;;;;21.45;12.48;;;;;;;12.04;64.09;99176.72;4971629;28;20051;-65
2022/04/23 04:54:32;;;;;;;19.08;12.65;;;;;;;12.07;64.01;99179.56;4958197;28;20050;-66
2022/04/23 04:57:02;;;;;;;17.63;12.23;;;;;;;12.32;63.25;99180.09;4971164;28;20054;-66
2022/04/23 04:59:34;;;;;;;16.30;12.20;;;;;;;12.42;62.77;99180.34;4958736;28;20071;-66
2022/04/23 05:02:02;;;;;;;16.02;11.75;;;;;;;12.29;63.21;99176.09;4975560;28;20077;-66
2022/04/23 05:04:29;;;;;;;16.00;11.80;;;;;;;12.34;62.77;99186.06;4975532;28;20057;-66
2022/04/23 05:06:57;;;;;;;14.48;12.00;;;;;;;12.34;63.05;99180.56;4975514;28;20059;-67
2022/04/23 05:09:24;;;;;;;20.27;12.25;;;;;;;12.55;62.65;99180.19;4978682;28;20058;-65
2022/04/23 05:11:51;;;;;;;17.13;12.05;;;;;;;12.37;62.64;99182.56;4942306;28;20058;-62
2022/04/23 05:14:19;;;;;;;17.35;13.20;;;;;;;12.20;63.22;99181.03;4972670;28;20490;-63
2022/04/23 05:16:46;;;;;;;17.23;12.57;;;;;;;12.22;63.12;99180.69;4958058;28;20065;-62
2022/04/23 05:19:13;;;;;;;19.65;12.25;;;;;;;12.38;62.84;99173.94;4960205;28;20061;-62
2022/04/23 05:21:41;;;;;;;15.27;12.00;;;;;;;12.72;61.73;99172.25;4955921;28;20054;-62
2022/04/23 05:24:08;;;;;;;14.95;11.82;;;;;;;12.63;61.95;99173.63;4975365;28;20051;-62
2022/04/23 05:26:35;;;;;;;18.63;12.55;;;;;;;12.64;61.89;99166.97;4974704;28;20050;-62
2022/04/23 05:29:03;;;;;;;17.92;12.98;;;;;;;12.64;61.72;99166.97;4971141;28;20633;-62
2022/04/23 05:31:32;;;;;;;19.23;12.48;;;;;;;12.43;62.29;99173.63;4975131;28;20066;-62
2022/04/23 05:33:59;;;;;;;27.17;12.10;;;;;;;12.52;62.24;99183.69;4965683;28;20054;-63
2022/04/23 05:36:27;;;;;;;19.50;11.88;;;;;;;12.55;62.27;99171.91;4953444;28;20047;-63
2022/04/23 05:38:55;;;;;;;16.40;12.35;;;;;;;12.64;61.57;99167.75;4975739;28;20054;-63
2022/04/23 05:41:23;;;;;;;16.98;12.05;;;;;;;12.59;61.80;99162.50;4959203;28;20055;-62
2022/04/23 05:43:50;;;;;;;16.85;12.45;;;;;;;12.62;61.67;99161.00;4976509;28;20138;-62
2022/04/23 05:46:18;;;;;;;18.73;12.20;;;;;;;12.68;61.78;99160.31;4968661;28;20065;-63
2022/04/23 05:48:45;;;;;;;18.08;11.82;;;;;;;12.68;61.43;99165.84;4969019;28;20047;-63
2022/04/23 05:51:12;;;;;;;15.80;12.43;;;;;;;12.65;61.18;99160.25;4973805;28;20047;-61
2022/04/23 05:53:41;;;;;;;16.35;11.73;;;;;;;12.75;60.58;99154.13;4971424;28;20053;-66
2022/04/23 05:56:08;;;;;;;18.27;11.63;;;;;;;12.48;62.09;99160.72;4975947;28;20051;-67
2022/04/23 05:58:38;;;;;;;16.15;11.82;;;;;;;12.48;61.88;99173.34;4975537;28;20058;-66
2022/04/23 06:01:05;;;;;;;19.08;11.88;;;;;;;12.73;60.97;99173.84;4957856;28;20092;-66
2022/04/23 06:03:33;;;;;;;14.95;11.60;;;;;;;12.93;60.34;99174.63;4940811;28;20058;-63
2022/04/23 06:06:01;;;;;;;16.98;12.35;;;;;;;13.07;60.08;99192.31;4957008;28;20070;-62
2022/04/23 06:08:28;;;;;;;16.20;11.40;;;;;;;13.26;59.67;99170.16;4952124;28;20074;-67
2022/04/23 06:10:56;;;;;;;15.45;11.85;;;;;;;13.26;59.61;99169.34;4956829;28;20410;-66
2022/04/23 06:13:24;;;;;;;20.90;12.75;;;;;;;13.37;59.14;99168.34;4973164;28;20518;-66
2022/04/23 06:15:54;;;;;;;17.83;12.18;;;;;;;13.22;59.37;99174.00;4959807;28;20518;-67
2022/04/23 06:18:22;;;;;;;18.52;13.10;;;;;;;13.42;58.78;99189.38;4973855;28;20059;-63
2022/04/23 06:20:49;;;;;;;16.88;12.00;;;;;;;13.36;58.83;99177.81;4973742;28;20054;-63
2022/04/23 06:23:17;;;;;;;16.00;11.70;;;;;;;13.46;58.66;99182.72;4974353;28;20059;-67
2022/04/23 06:25:44;;;;;;;16.73;12.43;;;;;;;13.45;58.73;99188.63;4972235;28;20516;-61
2022/04/23 06:28:11;;;;;;;21.38;13.00;;;;;;;13.52;58.61;99192.34;4941356;28;20062;-63
2022/04/23 06:30:39;;;;;;;16.45;13.07;;;;;;;13.55;58.44;99180.53;4975466;28;20156;-63
2022/04/23 06:33:06;;;;;;;19.45;12.63;;;;;;;13.60;58.29;99186.91;4971533;28;20047;-63
2022/04/23 06:35:34;;;;;;;16.48;12.38;;;;;;;13.69;58.27;99184.66;4974441;28;20058;-61
2022/04/23 06:38:02;;;;;;;17.83;12.13;;;;;;;13.91;57.56;99179.13;4974609;28;20049;-63
2022/04/23 06:40:29;;;;;;;16.98;12.23;;;;;;;13.75;57.31;99181.25;4951310;28;20073;-66
2022/04/23 06:42:57;;;;;;;17.48;12.07;;;;;;;13.43;58.18;99179.91;4957656;28;20055;-66
2022/04/23 06:45:31;;;;;;;15.32;12.45;;;;;;;13.53;58.17;99174.56;4971169;28;20077;-65
2022/04/23 06:48:03;;;;;;;18.50;12.25;;;;;;;13.15;59.43;99176.63;4976389;28;20063;-67
2022/04/23 06:50:32;;;;;;;16.92;12.38;;;;;;;13.14;59.55;99178.63;4973433;28;20055;-66
2022/04/23 06:53:01;;;;;;;15.63;12.43;;;;;;;13.21;59.66;99187.06;4953871;28;20047;-66
2022/04/23 06:55:29;;;;;;;25.58;13.93;;;;;;;13.26;59.63;99175.69;4960545;28;20054;-68
2022/04/23 06:57:56;;;;;;;16.67;12.25;;;;;;;13.52;58.99;99184.03;4979002;28;20050;-69
2022/04/23 07:00:24;;;;;;;16.70;12.55;;;;;;;13.47;58.72;99178.81;4966101;28;20058;-63
2022/04/23 07:02:58;;;;;;;15.05;12.73;;;;;;;13.37;59.29;99184.16;4962030;28;20411;-62
2022/04/23 07:05:25;;;;;;;15.70;12.75;;;;;;;13.40;59.42;99175.13;4977211;28;20043;-62
2022/04/23 07:08:01;;;;;;;17.42;12.65;;;;;;;13.69;58.80;99182.72;4977256;28;20058;-62
2022/04/23 07:10:30;;;;;;;20.27;12.93;;;;;;;13.62;58.74;99167.94;4978107;28;20059;-63
2022/04/23 07:12:58;;;;;;;19.23;13.95;;;;;;;13.69;58.68;99174.41;4978331;28;20046;-63
2022/04/23 07:15:28;;;;;;;20.70;12.73;;;;;;;13.64;58.87;99176.69;4974718;28;20506;-62
2022/04/23 07:17:55;;;;;;;16.08;12.45;;;;;;;13.48;59.15;99168.53;4957062;28;20206;-62
2022/04/23 07:20:23;;;;;;;15.43;12.60;;;;;;;13.59;58.99;99177.81;4967451;28;20055;-62
2022/04/23 07:25:37;;;;;;;16.55;12.43;;;;;;;13.76;58.56;99166.22;4942597;28;20053;-66
2022/04/23 07:28:05;;;;;;;18.48;13.35;;;;;;;13.60;58.90;99167.56;4972969;28;20425;-66
2022/04/23 07:30:34;;;;;;;20.02;12.88;;;;;;;13.81;58.79;99168.66;4955375;28;20119;-67
2022/04/23 07:33:02;;;;;;;22.10;12.85;;;;;;;13.79;58.16;99171.00;4977286;28;20062;-66
2022/04/23 07:38:20;;;;;;;17.70;12.55;;;;;;;13.48;59.28;99174.06;4968285;28;20051;-65
2022/04/23 07:40:51;;;;;;;19.98;13.57;;;;;;;13.57;59.71;99175.41;4974650;28;20065;-66
2022/04/23 07:43:19;;;;;;;20.10;12.77;;;;;;;13.68;59.19;99172.00;4976423;28;20050;-66
2022/04/23 07:45:47;;;;;;;20.90;13.13;;;;;;;13.75;59.16;99175.69;4976326;28;20505;-66
2022/04/23 07:48:14;;;;;;;21.10;13.95;;;;;;;13.70;59.38;99167.72;4976326;28;20074;-66
2022/04/23 07:50:42;;;;;;;21.75;13.48;;;;;;;13.82;58.73;99163.94;4976391;28;20047;-67
2022/04/23 07:53:11;;;;;;;16.35;12.52;;;;;;;13.93;58.80;99162.13;4963780;28;20050;-67
2022/04/23 07:55:40;;;;;;;20.35;13.40;;;;;;;14.08;57.95;99164.72;4974414;28;20071;-66
2022/04/23 07:58:11;;;;;;;19.80;13.30;;;;;;;14.29;57.44;99162.28;4959938;28;20042;-64
2022/04/23 08:00:40;;;;;;;17.70;13.15;;;;;;;14.22;57.72;99151.09;4956801;28;20391;-67
2022/04/23 08:03:08;;;;;;;18.65;13.57;;;;;;;14.34;57.41;99159.19;4974803;28;20051;-66
2022/04/23 08:05:37;;;;;;;16.50;13.55;;;;;;;14.52;56.92;99156.66;4969820;28;20050;-65
2022/04/23 08:08:04;;;;;;;23.58;13.10;;;;;;;14.71;57.68;99158.44;4976208;28;20055;-69
2022/04/23 08:10:34;;;;;;;17.73;12.75;;;;;;;15.03;56.36;99149.28;4982638;28;20483;-64
2022/04/23 08:13:01;;;;;;;17.30;11.93;;;;;;;15.21;57.02;99141.94;4976933;28;20514;-64
2022/04/23 08:15:29;;;;;;;17.20;12.65;;;;;;;15.17;55.48;99146.66;4941600;28;20406;-64
2022/04/23 08:17:56;;;;;;;16.30;11.88;;;;;;;15.47;55.95;99141.00;4974979;28;20051;-65
2022/04/23 08:20:24;;;;;;;16.27;12.07;;;;;;;15.45;54.94;99135.03;4965715;28;20058;-65
2022/04/23 08:22:51;;;;;;;14.98;11.32;;;;;;;15.48;55.28;99134.28;4976020;28;20070;-63
2022/04/23 08:25:18;;;;;;;16.10;12.32;;;;;;;15.51;54.55;99139.06;4981657;28;20055;-64
2022/04/23 08:27:50;;;;;;;18.20;12.57;;;;;;;15.75;54.41;99130.94;4959761;28;20388;-64
2022/04/23 08:30:34;;;;;;;15.85;12.30;;;;;;;15.87;53.84;99132.59;4961417;28;20059;-63
2022/04/23 08:33:06;;;;;;;15.38;12.48;;;;;;;15.81;54.03;99136.91;4961976;28;20061;-69
2022/04/23 08:35:35;;;;;;;21.27;13.02;;;;;;;15.71;53.72;99130.09;4982519;28;20046;-67
2022/04/23 08:38:04;;;;;;;23.45;13.20;;;;;;;16.03;53.37;99126.72;4980615;28;20069;-66
2022/04/23 08:40:40;;;;;;;14.73;12.75;;;;;;;15.68;53.45;99128.09;4976888;28;20062;-66
2022/04/23 08:43:08;;;;;;;18.55;12.02;;;;;;;16.02;53.02;99131.50;4957476;28;20054;-63
2022/04/23 08:45:37;;;;;;;18.42;12.30;;;;;;;16.14;52.68;99127.59;4954005;28;20054;-62
2022/04/23 08:48:14;;;;;;;16.92;11.85;;;;;;;16.31;52.62;99136.03;4968671;28;20065;-63
2022/04/23 08:50:43;;;;;;;17.08;12.98;;;;;;;16.64;51.29;99124.66;4978970;28;20058;-64
2022/04/23 08:53:17;;;;;;;19.83;13.63;;;;;;;16.12;52.50;99127.97;4957578;28;20039;-61
2022/04/23 08:55:53;;;;;;;14.45;12.70;;;;;;;16.35;52.14;99127.69;4971880;28;20051;-66
2022/04/23 08:58:21;;;;;;;17.05;12.98;;;;;;;15.97;52.97;99128.28;4982288;28;20058;-68
2022/04/23 09:00:49;;;;;;;18.35;13.68;;;;;;;16.13;53.35;99137.09;4954382;28;20058;-65
2022/04/23 09:03:17;;;;;;;21.70;13.63;;;;;;;16.10;53.04;99133.13;4971987;28;20054;-66
2022/04/23 09:05:50;;;;;;;22.20;14.00;;;;;;;16.11;53.37;99131.94;4975385;28;20053;-64
2022/04/23 09:08:17;;;;;;;18.15;13.75;;;;;;;16.08;53.64;99135.50;4976561;28;20054;-62
2022/04/23 09:10:54;;;;;;;21.40;14.63;;;;;;;16.25;53.07;99136.78;4957585;28;20073;-61
2022/04/23 09:13:27;;;;;;;21.83;14.45;;;;;;;16.00;53.67;99136.66;4975995;28;20055;-65
2022/04/23 09:24:45;;;;;;;19.55;13.10;;;;;;;15.91;54.52;99135.38;4972665;28;20057;-65
2022/04/23 09:27:13;;;;;;;19.85;13.07;;;;;;;15.83;55.58;99136.53;4974933;28;20060;-65
2022/04/23 09:29:42;;;;;;;18.52;12.98;;;;;;;16.20;54.50;99131.56;4974474;28;20077;-65
2022/04/23 09:32:10;;;;;;;15.57;13.13;;;;;;;16.31;54.15;99132.44;4974933;28;20407;-64
2022/04/23 09:34:38;;;;;;;19.75;13.13;;;;;;;16.34;53.87;99132.44;4975122;28;20038;-64
2022/04/23 09:37:08;;;;;;;24.00;13.63;;;;;;;16.16;54.47;99131.56;4973560;28;20043;-64
2022/04/23 09:39:38;;;;;;;17.73;13.55;;;;;;;16.33;54.41;99124.50;4975138;28;20047;-64
2022/04/23 09:42:13;;;;;;;;;;;;;;;16.30;54.43;99123.28;4972747;28;20055;-65
2022/04/23 09:44:42;;;;;;;18.42;13.20;;;;;;;16.47;54.20;99125.41;4964685;28;19933;-65
2022/04/23 09:47:09;;;;;;;20.88;13.57;;;;;;;16.53;54.01;99120.25;4970476;28;20051;-66
2022/04/23 09:49:38;;;;;;;18.20;14.02;;;;;;;16.52;54.38;99121.44;4972082;28;20382;-65
2022/04/23 09:52:10;;;;;;;20.52;13.57;;;;;;;16.71;54.15;99129.44;4969372;28;20063;-65
2022/04/23 09:54:38;;;;;;;18.20;13.23;;;;;;;16.51;53.66;99123.41;4972641;28;20070;-65
2022/04/23 09:57:06;;;;;;;15.98;13.05;;;;;;;16.69;53.58;99126.25;4974244;28;20042;-66
2022/04/23 09:59:34;;;;;;;19.55;13.50;;;;;;;16.62;53.96;99121.47;4973391;28;20063;-67
2022/04/23 10:02:02;;;;;;;18.98;12.85;;;;;;;16.71;53.75;99121.91;4966739;28;20055;-65
2022/04/23 10:04:30;;;;;;;16.38;13.60;;;;;;;16.67;53.92;99125.84;4970087;28;20050;-65
2022/04/23 10:07:00;;;;;;;15.27;12.88;;;;;;;16.71;53.84;99123.88;4972349;28;20047;-66
2022/04/23 10:09:30;;;;;;;16.48;12.23;;;;;;;16.55;54.35;99129.00;4972618;28;20147;-66
2022/04/23 10:12:02;;;;;;;20.63;13.45;;;;;;;16.51;54.34;99122.66;4956839;28;20058;-67
2022/04/23 10:14:34;;;;;;;18.60;12.52;;;;;;;16.53;54.35;99123.03;4975051;28;20050;-61
2022/04/23 10:17:10;;;;;;;15.50;12.38;;;;;;;16.70;53.79;99120.31;4957256;28;20054;-61
2022/04/23 10:19:37;;;;;;;21.55;12.70;;;;;;;16.92;53.29;99114.81;4973302;28;20050;-63
2022/04/23 10:22:52;;;;;;;22.98;13.45;;;;;;;16.75;53.90;99110.81;4978013;28;20058;-63
2022/04/23 10:25:28;;;;;;;17.75;12.50;;;;;;;16.69;53.99;99104.81;4877666;29;20287;-61
2022/04/23 10:27:57;;;;;;;14.90;12.10;;;;;;;16.85;53.58;99113.59;4891683;29;20382;-60
2022/04/23 10:30:28;;;;;;;14.25;11.50;;;;;;;16.99;53.18;99104.50;4936535;28;20062;-60
2022/04/23 10:32:55;;;;;;;20.75;12.50;;;;;;;17.06;53.14;99103.69;4971456;28;20054;-61
2022/04/23 10:35:22;;;;;;;15.25;11.57;;;;;;;17.27;53.30;99103.72;4955553;28;20637;-62
2022/04/23 10:37:56;;;;;;;15.38;12.00;;;;;;;17.36;52.85;99098.56;4972514;28;20061;-62
2022/04/23 10:40:23;;;;;;;16.70;11.52;;;;;;;17.16;53.00;99103.72;4963438;28;20058;-62
2022/04/23 10:43:08;;;;;;;15.85;11.02;;;;;;;17.13;53.40;99093.38;4978566;28;20054;-62
2022/04/23 10:45:37;;;;;;;16.17;12.48;;;;;;;17.17;53.17;99101.75;4971257;28;20066;-60
2022/04/23 10:48:19;;;;;;;14.18;11.00;;;;;;;17.42;52.83;99096.97;4974272;28;20050;-62
2022/04/23 10:51:00;;;;;;;13.73;10.73;;;;;;;17.57;52.20;99095.81;4976777;28;20137;-62
2022/04/23 10:53:50;;;;;;;15.15;10.18;;;;;;;17.62;52.34;99093.41;4968279;28;20070;-61
2022/04/23 10:56:19;;;;;;;15.05;9.90;;;;;;;17.76;51.61;99089.81;4974833;28;20050;-61
2022/04/23 10:58:47;;;;;;;14.05;11.07;;;;;;;17.67;51.49;99095.78;4957949;28;20043;-62
2022/04/23 11:01:25;;;;;;;15.77;10.38;;;;;;;17.64;51.38;99099.34;4958134;28;20043;-62
2022/04/23 11:03:56;;;;;;;14.77;10.27;;;;;;;17.50;51.75;99091.03;4981491;28;20536;-61
2022/04/23 11:12:37;;;;;;;13.77;9.23;;;;;;;17.92;50.76;99092.97;4948190;28;20081;-61
2022/04/23 11:15:15;;;;;;;11.75;9.02;;;;;;;18.18;50.08;99084.13;4973584;28;20055;-62
2022/04/23 11:17:46;;;;;;;11.00;9.30;;;;;;;18.19;50.58;99087.69;4981785;28;20050;-62
2022/04/23 11:20:14;;;;;;;15.38;9.13;;;;;;;18.47;49.56;99094.00;4977497;28;20061;-66
2022/04/23 11:22:41;;;;;;;13.27;8.20;;;;;;;18.63;48.94;99080.38;4974076;28;20057;-66
2022/04/23 11:25:08;;;;;;;11.13;7.47;;;;;;;18.55;48.93;99084.38;4957398;28;20058;-67
2022/04/23 11:27:36;;;;;;;10.70;6.85;;;;;;;18.89;47.93;99084.59;4978532;28;20054;-62
2022/04/23 11:30:06;;;;;;;11.07;6.30;;;;;;;18.61;47.24;99085.56;4965953;28;20046;-62
2022/04/23 11:32:36;;;;;;;9.00;5.60;;;;;;;18.75;46.96;99084.69;4984942;28;20050;-61
2022/04/23 11:35:05;;;;;;;12.13;5.80;;;;;;;18.65;46.52;99079.97;4977701;28;20471;-62
2022/04/23 11:37:37;;;;;;;14.98;5.07;;;;;;;18.59;46.49;99067.63;4979241;28;20070;-66
2022/04/23 11:40:08;;;;;;;9.65;5.43;;;;;;;18.52;46.36;99065.69;4977562;28;20070;-63
2022/04/23 11:42:36;;;;;;;8.32;4.57;;;;;;;18.87;45.24;99068.28;4978180;28;20054;-62
2022/04/23 11:45:05;;;;;;;10.90;4.43;;;;;;;18.65;45.19;99071.59;4977840;28;20058;-62
2022/04/23 11:47:33;;;;;;;7.35;4.05;;;;;;;18.60;45.24;99063.66;4971496;28;20050;-61
2022/04/23 11:50:07;;;;;;;9.07;4.10;;;;;;;19.01;44.62;99056.22;4966127;28;20043;-66